sensor_id;sensor_type;location;lat;lon;timestamp;temperature;humidity
35541;DHT22;21650;48.840;9.162;2023-03-01T00:01:27;-1.00;99.90
35541;DHT22;21650;48.840;9.162;2023-03-01T00:03:54;-1.10;99.90
35541;DHT22;21650;48.840;9.162;2023-03-01T00:06:20;-1.10;99.90
35541;DHT22;21650;48.840;9.162;2023-03-01T00:08:47;-1.10;99.90
35541;DHT22;21650;48.840;9.162;2023-03-01T00:11:25;-1.10;99.90
35541;DHT22;21650;48.840;9.162;2023-03-01T00:13:53;-1.20;99.90
35541;DHT22;21650;48.840;9.162;2023-03-01T00:16:23;-1.10;99.90
35541;DHT22;21650;48.840;9.162;2023-03-01T00:18:49;-1.20;99.90
35541;DHT22;21650;48.840;9.162;2023-03-01T00:21:16;-1.20;99.90
35541;DHT22;21650;48.840;9.162;2023-03-01T00:23:42;-1.20;99.90
35541;DHT22;21650;48.840;9.162;2023-03-01T00:26:11;-1.20;99.90
35541;DHT22;21650;48.840;9.162;2023-03-01T00:28:38;-1.20;99.90
35541;DHT22;21650;48.840;9.162;2023-03-01T00:31:09;-1.10;99.90
35541;DHT22;21650;48.840;9.162;2023-03-01T00:33:35;-1.10;99.90
35541;DHT22;21650;48.840;9.162;2023-03-01T00:36:00;-1.10;99.90
35541;DHT22;21650;48.840;9.162;2023-03-01T00:38:26;-1.10;99.90
35541;DHT22;21650;48.840;9.162;2023-03-01T00:40:52;-1.10;99.90
35541;DHT22;21650;48.840;9.162;2023-03-01T00:43:18;-1.20;99.90
35541;DHT22;21650;48.840;9.162;2023-03-01T00:45:43;-1.10;99.90
35541;DHT22;21650;48.840;9.162;2023-03-01T00:48:09;-1.00;99.90
35541;DHT22;21650;48.840;9.162;2023-03-01T00:50:35;-1.00;99.90
35541;DHT22;21650;48.840;9.162;2023-03-01T00:53:00;-0.80;99.90
35541;DHT22;21650;48.840;9.162;2023-03-01T00:55:26;-0.70;99.90
35541;DHT22;21650;48.840;9.162;2023-03-01T00:57:52;-0.60;99.90
35541;DHT22;21650;48.840;9.162;2023-03-01T01:00:19;-0.70;99.90
35541;DHT22;21650;48.840;9.162;2023-03-01T01:02:45;-0.70;99.90
35541;DHT22;21650;48.840;9.162;2023-03-01T01:05:11;-0.70;99.90
35541;DHT22;21650;48.840;9.162;2023-03-01T01:07:37;-0.70;99.90
35541;DHT22;21650;48.840;9.162;2023-03-01T01:10:03;-0.80;99.90
35541;DHT22;21650;48.840;9.162;2023-03-01T01:12:29;-0.90;99.90
35541;DHT22;21650;48.840;9.162;2023-03-01T01:14:54;-0.80;99.90
35541;DHT22;21650;48.840;9.162;2023-03-01T01:17:20;-0.90;99.90
35541;DHT22;21650;48.840;9.162;2023-03-01T01:19:46;-0.90;99.90
35541;DHT22;21650;48.840;9.162;2023-03-01T01:22:11;-0.90;99.90
35541;DHT22;21650;48.840;9.162;2023-03-01T01:24:37;-1.00;99.90
35541;DHT22;21650;48.840;9.162;2023-03-01T01:27:03;-1.10;99.90
35541;DHT22;21650;48.840;9.162;2023-03-01T01:29:28;-1.10;99.90
35541;DHT22;21650;48.840;9.162;2023-03-01T01:31:54;-1.10;99.90
35541;DHT22;21650;48.840;9.162;2023-03-01T01:34:21;-1.20;99.90
35541;DHT22;21650;48.840;9.162;2023-03-01T01:36:53;-1.30;99.90
35541;DHT22;21650;48.840;9.162;2023-03-01T01:39:20;-1.40;99.90
35541;DHT22;21650;48.840;9.162;2023-03-01T01:41:46;-1.40;99.90
35541;DHT22;21650;48.840;9.162;2023-03-01T01:44:19;-1.40;99.90
35541;DHT22;21650;48.840;9.162;2023-03-01T01:47:01;-1.50;99.90
35541;DHT22;21650;48.840;9.162;2023-03-01T01:49:41;-1.50;99.90
35541;DHT22;21650;48.840;9.162;2023-03-01T01:52:22;-1.50;99.90
35541;DHT22;21650;48.840;9.162;2023-03-01T01:55:03;-1.40;99.90
35541;DHT22;21650;48.840;9.162;2023-03-01T01:57:55;-1.40;99.90
35541;DHT22;21650;48.840;9.162;2023-03-01T02:00:27;-1.50;99.90
35541;DHT22;21650;48.840;9.162;2023-03-01T02:03:06;-1.40;99.90
35541;DHT22;21650;48.840;9.162;2023-03-01T02:05:50;-1.40;99.90
35541;DHT22;21650;48.840;9.162;2023-03-01T02:08:19;-1.30;99.90
35541;DHT22;21650;48.840;9.162;2023-03-01T02:10:47;-1.40;99.90
35541;DHT22;21650;48.840;9.162;2023-03-01T02:13:13;-1.30;99.90
35541;DHT22;21650;48.840;9.162;2023-03-01T02:15:40;-1.30;99.90
35541;DHT22;21650;48.840;9.162;2023-03-01T02:18:07;-1.30;99.90
35541;DHT22;21650;48.840;9.162;2023-03-01T02:23:31;-1.20;99.90
35541;DHT22;21650;48.840;9.162;2023-03-01T02:26:11;-1.10;99.90
35541;DHT22;21650;48.840;9.162;2023-03-01T02:28:41;-1.00;99.90
35541;DHT22;21650;48.840;9.162;2023-03-01T02:31:09;-0.90;99.90
35541;DHT22;21650;48.840;9.162;2023-03-01T02:33:55;-0.90;99.90
35541;DHT22;21650;48.840;9.162;2023-03-01T02:36:34;-0.80;99.90
35541;DHT22;21650;48.840;9.162;2023-03-01T02:39:03;-0.80;99.90
35541;DHT22;21650;48.840;9.162;2023-03-01T02:41:34;-0.70;99.90
35541;DHT22;21650;48.840;9.162;2023-03-01T02:44:01;-0.80;99.90
35541;DHT22;21650;48.840;9.162;2023-03-01T02:46:27;-0.70;99.90
35541;DHT22;21650;48.840;9.162;2023-03-01T02:48:56;-0.70;99.90
35541;DHT22;21650;48.840;9.162;2023-03-01T02:51:32;-0.70;99.90
35541;DHT22;21650;48.840;9.162;2023-03-01T02:54:19;-0.70;99.90
35541;DHT22;21650;48.840;9.162;2023-03-01T02:56:46;-0.60;99.90
35541;DHT22;21650;48.840;9.162;2023-03-01T02:59:15;-0.50;99.90
35541;DHT22;21650;48.840;9.162;2023-03-01T03:01:41;-0.50;99.90
35541;DHT22;21650;48.840;9.162;2023-03-01T03:04:10;-0.50;99.90
35541;DHT22;21650;48.840;9.162;2023-03-01T03:06:37;-0.60;99.90
35541;DHT22;21650;48.840;9.162;2023-03-01T03:09:03;-0.50;99.90
35541;DHT22;21650;48.840;9.162;2023-03-01T03:11:29;-0.50;99.90
35541;DHT22;21650;48.840;9.162;2023-03-01T03:13:55;-0.50;99.90
35541;DHT22;21650;48.840;9.162;2023-03-01T03:16:21;-0.50;99.90
35541;DHT22;21650;48.840;9.162;2023-03-01T03:18:49;-0.50;99.90
35541;DHT22;21650;48.840;9.162;2023-03-01T03:21:15;-0.50;99.90
35541;DHT22;21650;48.840;9.162;2023-03-01T03:23:41;-0.50;99.90
35541;DHT22;21650;48.840;9.162;2023-03-01T03:26:07;-0.50;99.90
35541;DHT22;21650;48.840;9.162;2023-03-01T03:28:33;-0.50;99.90
35541;DHT22;21650;48.840;9.162;2023-03-01T03:31:00;-0.50;99.90
35541;DHT22;21650;48.840;9.162;2023-03-01T03:33:30;-0.40;99.90
35541;DHT22;21650;48.840;9.162;2023-03-01T03:35:55;-0.50;99.90
35541;DHT22;21650;48.840;9.162;2023-03-01T03:38:22;-0.40;99.90
35541;DHT22;21650;48.840;9.162;2023-03-01T03:40:50;-0.40;99.90
35541;DHT22;21650;48.840;9.162;2023-03-01T03:43:18;-0.40;99.90
35541;DHT22;21650;48.840;9.162;2023-03-01T03:45:45;-0.40;99.90
35541;DHT22;21650;48.840;9.162;2023-03-01T03:48:11;-0.40;99.90
35541;DHT22;21650;48.840;9.162;2023-03-01T03:50:38;-0.30;99.90
35541;DHT22;21650;48.840;9.162;2023-03-01T03:53:07;-0.20;99.90
35541;DHT22;21650;48.840;9.162;2023-03-01T03:55:33;-0.20;99.90
35541;DHT22;21650;48.840;9.162;2023-03-01T03:58:00;-0.10;99.90
35541;DHT22;21650;48.840;9.162;2023-03-01T04:00:32;-0.20;99.90
35541;DHT22;21650;48.840;9.162;2023-03-01T04:02:58;-0.10;99.90
35541;DHT22;21650;48.840;9.162;2023-03-01T04:05:24;-0.20;99.90
35541;DHT22;21650;48.840;9.162;2023-03-01T04:07:50;-0.20;99.90
35541;DHT22;21650;48.840;9.162;2023-03-01T04:10:27;-0.20;99.90
35541;DHT22;21650;48.840;9.162;2023-03-01T04:12:52;-0.10;99.90
35541;DHT22;21650;48.840;9.162;2023-03-01T04:15:18;-0.10;99.90
35541;DHT22;21650;48.840;9.162;2023-03-01T04:17:46;-0.10;99.90
35541;DHT22;21650;48.840;9.162;2023-03-01T04:20:15;-0.10;99.90
35541;DHT22;21650;48.840;9.162;2023-03-01T04:25:33;-0.10;99.90
35541;DHT22;21650;48.840;9.162;2023-03-01T04:27:59;-0.10;99.90
35541;DHT22;21650;48.840;9.162;2023-03-01T04:30:25;-0.10;99.90
35541;DHT22;21650;48.840;9.162;2023-03-01T04:32:50;-0.10;99.90
35541;DHT22;21650;48.840;9.162;2023-03-01T04:35:16;-0.10;99.90
35541;DHT22;21650;48.840;9.162;2023-03-01T04:37:41;-0.10;99.90
35541;DHT22;21650;48.840;9.162;2023-03-01T04:40:07;-0.10;99.90
35541;DHT22;21650;48.840;9.162;2023-03-01T04:42:41;-0.10;99.90
35541;DHT22;21650;48.840;9.162;2023-03-01T04:45:08;-0.10;99.90
35541;DHT22;21650;48.840;9.162;2023-03-01T04:47:39;0.00;99.90
35541;DHT22;21650;48.840;9.162;2023-03-01T04:50:05;0.00;99.90
35541;DHT22;21650;48.840;9.162;2023-03-01T04:52:30;0.00;99.90
35541;DHT22;21650;48.840;9.162;2023-03-01T04:54:57;0.00;99.90
35541;DHT22;21650;48.840;9.162;2023-03-01T04:57:22;0.00;99.90
35541;DHT22;21650;48.840;9.162;2023-03-01T04:59:48;0.00;99.90
35541;DHT22;21650;48.840;9.162;2023-03-01T05:02:13;-0.10;99.90
35541;DHT22;21650;48.840;9.162;2023-03-01T05:04:39;0.00;99.90
35541;DHT22;21650;48.840;9.162;2023-03-01T05:07:04;0.00;99.90
35541;DHT22;21650;48.840;9.162;2023-03-01T05:09:30;0.00;99.90
35541;DHT22;21650;48.840;9.162;2023-03-01T05:11:56;0.00;99.90
35541;DHT22;21650;48.840;9.162;2023-03-01T05:14:21;0.00;99.90
35541;DHT22;21650;48.840;9.162;2023-03-01T05:16:48;0.00;99.90
35541;DHT22;21650;48.840;9.162;2023-03-01T05:19:14;0.00;99.90
35541;DHT22;21650;48.840;9.162;2023-03-01T05:21:48;0.00;99.90
35541;DHT22;21650;48.840;9.162;2023-03-01T05:24:30;0.00;99.90
35541;DHT22;21650;48.840;9.162;2023-03-01T05:26:56;0.00;99.90
35541;DHT22;21650;48.840;9.162;2023-03-01T05:29:24;0.10;99.90
35541;DHT22;21650;48.840;9.162;2023-03-01T05:31:57;0.10;99.90
35541;DHT22;21650;48.840;9.162;2023-03-01T05:34:34;0.00;99.90
35541;DHT22;21650;48.840;9.162;2023-03-01T05:37:00;0.10;99.90
35541;DHT22;21650;48.840;9.162;2023-03-01T05:39:27;0.10;99.90
35541;DHT22;21650;48.840;9.162;2023-03-01T05:41:57;0.10;99.90
35541;DHT22;21650;48.840;9.162;2023-03-01T05:44:24;0.10;99.90
35541;DHT22;21650;48.840;9.162;2023-03-01T05:46:51;0.10;99.90
35541;DHT22;21650;48.840;9.162;2023-03-01T05:49:16;0.10;99.90
35541;DHT22;21650;48.840;9.162;2023-03-01T05:51:47;0.10;99.90
35541;DHT22;21650;48.840;9.162;2023-03-01T05:54:13;0.10;99.90
35541;DHT22;21650;48.840;9.162;2023-03-01T05:56:39;0.10;99.90
35541;DHT22;21650;48.840;9.162;2023-03-01T05:59:05;0.10;99.90
35541;DHT22;21650;48.840;9.162;2023-03-01T06:01:32;0.10;99.90
35541;DHT22;21650;48.840;9.162;2023-03-01T06:03:58;0.10;99.90
35541;DHT22;21650;48.840;9.162;2023-03-01T06:06:24;0.00;99.90
35541;DHT22;21650;48.840;9.162;2023-03-01T06:08:51;0.10;99.90
35541;DHT22;21650;48.840;9.162;2023-03-01T06:11:16;0.10;99.90
35541;DHT22;21650;48.840;9.162;2023-03-01T06:13:43;0.20;99.90
35541;DHT22;21650;48.840;9.162;2023-03-01T06:16:09;0.10;99.90
35541;DHT22;21650;48.840;9.162;2023-03-01T06:18:35;0.20;99.90
35541;DHT22;21650;48.840;9.162;2023-03-01T06:23:36;0.20;99.90
35541;DHT22;21650;48.840;9.162;2023-03-01T06:26:08;0.20;99.90
35541;DHT22;21650;48.840;9.162;2023-03-01T06:28:35;0.20;99.90
35541;DHT22;21650;48.840;9.162;2023-03-01T06:31:01;0.20;99.90
35541;DHT22;21650;48.840;9.162;2023-03-01T06:33:26;0.20;99.90
35541;DHT22;21650;48.840;9.162;2023-03-01T06:35:54;0.20;99.90
35541;DHT22;21650;48.840;9.162;2023-03-01T06:38:20;0.20;99.90
35541;DHT22;21650;48.840;9.162;2023-03-01T06:40:52;0.00;99.90
35541;DHT22;21650;48.840;9.162;2023-03-01T06:43:18;0.00;99.90
35541;DHT22;21650;48.840;9.162;2023-03-01T06:45:43;0.00;99.90
35541;DHT22;21650;48.840;9.162;2023-03-01T06:48:09;0.00;99.90
35541;DHT22;21650;48.840;9.162;2023-03-01T06:50:35;0.10;99.90
35541;DHT22;21650;48.840;9.162;2023-03-01T06:53:01;0.10;99.90
35541;DHT22;21650;48.840;9.162;2023-03-01T06:55:27;0.10;99.90
35541;DHT22;21650;48.840;9.162;2023-03-01T06:57:57;0.10;99.90
35541;DHT22;21650;48.840;9.162;2023-03-01T07:00:24;0.10;99.90
35541;DHT22;21650;48.840;9.162;2023-03-01T07:02:49;0.10;99.90
35541;DHT22;21650;48.840;9.162;2023-03-01T07:05:15;0.10;99.90
35541;DHT22;21650;48.840;9.162;2023-03-01T07:07:40;0.20;99.90
35541;DHT22;21650;48.840;9.162;2023-03-01T07:10:07;0.20;99.90
35541;DHT22;21650;48.840;9.162;2023-03-01T07:12:33;0.20;99.90
35541;DHT22;21650;48.840;9.162;2023-03-01T07:14:58;0.10;99.90
35541;DHT22;21650;48.840;9.162;2023-03-01T07:17:24;0.10;99.90
35541;DHT22;21650;48.840;9.162;2023-03-01T07:19:49;0.20;99.90
35541;DHT22;21650;48.840;9.162;2023-03-01T07:22:15;0.20;99.90
35541;DHT22;21650;48.840;9.162;2023-03-01T07:24:41;0.20;99.90
35541;DHT22;21650;48.840;9.162;2023-03-01T07:27:07;0.10;99.90
35541;DHT22;21650;48.840;9.162;2023-03-01T07:29:32;0.10;99.90
35541;DHT22;21650;48.840;9.162;2023-03-01T07:31:58;0.10;99.90
35541;DHT22;21650;48.840;9.162;2023-03-01T07:34:24;0.10;99.90
35541;DHT22;21650;48.840;9.162;2023-03-01T07:36:49;0.10;99.90
35541;DHT22;21650;48.840;9.162;2023-03-01T07:39:15;0.20;99.90
35541;DHT22;21650;48.840;9.162;2023-03-01T07:41:40;0.20;99.90
35541;DHT22;21650;48.840;9.162;2023-03-01T07:44:06;0.20;99.90
35541;DHT22;21650;48.840;9.162;2023-03-01T07:46:32;0.20;99.90
35541;DHT22;21650;48.840;9.162;2023-03-01T07:48:58;0.20;99.90
35541;DHT22;21650;48.840;9.162;2023-03-01T07:51:23;0.30;99.90
35541;DHT22;21650;48.840;9.162;2023-03-01T07:53:49;0.40;99.90
35541;DHT22;21650;48.840;9.162;2023-03-01T07:56:16;0.50;99.90
35541;DHT22;21650;48.840;9.162;2023-03-01T07:58:44;0.50;99.90
35541;DHT22;21650;48.840;9.162;2023-03-01T08:01:12;0.60;99.90
35541;DHT22;21650;48.840;9.162;2023-03-01T08:03:38;0.60;99.90
35541;DHT22;21650;48.840;9.162;2023-03-01T08:06:06;0.60;99.90
35541;DHT22;21650;48.840;9.162;2023-03-01T08:08:32;0.70;99.90
35541;DHT22;21650;48.840;9.162;2023-03-01T08:11:02;0.80;99.90
35541;DHT22;21650;48.840;9.162;2023-03-01T08:13:30;0.80;99.90
35541;DHT22;21650;48.840;9.162;2023-03-01T08:16:01;0.80;99.90
35541;DHT22;21650;48.840;9.162;2023-03-01T08:18:27;0.80;99.90
35541;DHT22;21650;48.840;9.162;2023-03-01T08:20:53;0.90;99.90
35541;DHT22;21650;48.840;9.162;2023-03-01T08:23:18;0.90;99.90
35541;DHT22;21650;48.840;9.162;2023-03-01T08:25:44;0.90;99.90
35541;DHT22;21650;48.840;9.162;2023-03-01T08:28:09;0.90;99.90
35541;DHT22;21650;48.840;9.162;2023-03-01T08:30:35;1.00;99.90
35541;DHT22;21650;48.840;9.162;2023-03-01T08:33:01;1.00;99.90
35541;DHT22;21650;48.840;9.162;2023-03-01T08:35:26;1.00;99.90
35541;DHT22;21650;48.840;9.162;2023-03-01T08:37:52;1.00;99.90
35541;DHT22;21650;48.840;9.162;2023-03-01T08:40:17;1.10;99.90
35541;DHT22;21650;48.840;9.162;2023-03-01T08:42:43;1.20;99.90
35541;DHT22;21650;48.840;9.162;2023-03-01T08:45:10;1.20;99.90
35541;DHT22;21650;48.840;9.162;2023-03-01T08:47:36;1.30;99.90
35541;DHT22;21650;48.840;9.162;2023-03-01T08:50:02;1.40;99.90
35541;DHT22;21650;48.840;9.162;2023-03-01T08:52:27;1.40;99.90
35541;DHT22;21650;48.840;9.162;2023-03-01T08:54:55;1.50;99.90
35541;DHT22;21650;48.840;9.162;2023-03-01T08:57:21;1.60;99.90
35541;DHT22;21650;48.840;9.162;2023-03-01T08:59:47;1.70;99.90
35541;DHT22;21650;48.840;9.162;2023-03-01T09:02:17;1.70;99.90
35541;DHT22;21650;48.840;9.162;2023-03-01T09:04:43;1.70;99.90
35541;DHT22;21650;48.840;9.162;2023-03-01T09:07:10;1.70;99.90
35541;DHT22;21650;48.840;9.162;2023-03-01T09:09:36;1.80;99.90
35541;DHT22;21650;48.840;9.162;2023-03-01T09:12:02;1.80;99.90
35541;DHT22;21650;48.840;9.162;2023-03-01T09:14:28;1.70;99.90
35541;DHT22;21650;48.840;9.162;2023-03-01T09:16:53;1.70;99.90
35541;DHT22;21650;48.840;9.162;2023-03-01T09:19:19;1.80;99.90
35541;DHT22;21650;48.840;9.162;2023-03-01T09:21:45;2.00;99.90
35541;DHT22;21650;48.840;9.162;2023-03-01T09:24:22;2.10;99.90
35541;DHT22;21650;48.840;9.162;2023-03-01T09:26:48;2.10;99.90
35541;DHT22;21650;48.840;9.162;2023-03-01T09:29:15;2.20;99.90
35541;DHT22;21650;48.840;9.162;2023-03-01T09:31:41;2.20;99.90
35541;DHT22;21650;48.840;9.162;2023-03-01T09:34:07;2.20;99.90
35541;DHT22;21650;48.840;9.162;2023-03-01T09:36:33;2.30;99.90
35541;DHT22;21650;48.840;9.162;2023-03-01T09:38:59;2.40;99.90
35541;DHT22;21650;48.840;9.162;2023-03-01T09:44:01;2.50;99.90
35541;DHT22;21650;48.840;9.162;2023-03-01T09:46:40;2.50;99.90
35541;DHT22;21650;48.840;9.162;2023-03-01T09:49:12;2.60;99.90
35541;DHT22;21650;48.840;9.162;2023-03-01T09:51:39;2.80;99.90
35541;DHT22;21650;48.840;9.162;2023-03-01T09:54:06;2.90;99.90
35541;DHT22;21650;48.840;9.162;2023-03-01T09:56:36;2.70;99.90
35541;DHT22;21650;48.840;9.162;2023-03-01T10:04:51;3.20;99.90
35541;DHT22;21650;48.840;9.162;2023-03-01T10:10:06;3.10;99.90
35541;DHT22;21650;48.840;9.162;2023-03-01T10:12:39;3.30;99.90
35541;DHT22;21650;48.840;9.162;2023-03-01T10:15:14;3.20;99.90
35541;DHT22;21650;48.840;9.162;2023-03-01T10:20:22;3.40;99.90
35541;DHT22;21650;48.840;9.162;2023-03-01T10:22:49;3.60;99.90
35541;DHT22;21650;48.840;9.162;2023-03-01T10:30:53;3.90;99.90
35541;DHT22;21650;48.840;9.162;2023-03-01T10:33:35;3.90;99.90
35541;DHT22;21650;48.840;9.162;2023-03-01T10:36:03;4.10;99.90
35541;DHT22;21650;48.840;9.162;2023-03-01T10:38:31;4.00;99.90
35541;DHT22;21650;48.840;9.162;2023-03-01T10:41:05;4.10;99.90
35541;DHT22;21650;48.840;9.162;2023-03-01T10:46:32;4.00;99.90
35541;DHT22;21650;48.840;9.162;2023-03-01T10:49:07;4.30;99.90
35541;DHT22;21650;48.840;9.162;2023-03-01T10:51:33;4.50;99.90
35541;DHT22;21650;48.840;9.162;2023-03-01T10:53:58;4.70;99.90
35541;DHT22;21650;48.840;9.162;2023-03-01T10:56:24;4.60;99.90
35541;DHT22;21650;48.840;9.162;2023-03-01T10:59:05;4.90;99.90
35541;DHT22;21650;48.840;9.162;2023-03-01T11:01:33;5.10;99.90
35541;DHT22;21650;48.840;9.162;2023-03-01T11:04:18;5.10;99.90
35541;DHT22;21650;48.840;9.162;2023-03-01T11:06:43;5.00;99.90
35541;DHT22;21650;48.840;9.162;2023-03-01T11:09:24;5.20;99.90
35541;DHT22;21650;48.840;9.162;2023-03-01T11:11:57;5.10;99.90
35541;DHT22;21650;48.840;9.162;2023-03-01T11:14:25;5.20;99.90
35541;DHT22;21650;48.840;9.162;2023-03-01T11:17:05;5.40;99.90
35541;DHT22;21650;48.840;9.162;2023-03-01T11:19:32;5.30;99.90
35541;DHT22;21650;48.840;9.162;2023-03-01T11:22:03;5.40;99.90
35541;DHT22;21650;48.840;9.162;2023-03-01T11:24:36;5.40;99.90
35541;DHT22;21650;48.840;9.162;2023-03-01T11:27:06;5.40;99.90
35541;DHT22;21650;48.840;9.162;2023-03-01T11:29:38;5.50;99.90
35541;DHT22;21650;48.840;9.162;2023-03-01T11:32:09;5.30;99.90
35541;DHT22;21650;48.840;9.162;2023-03-01T11:34:46;5.50;99.90
35541;DHT22;21650;48.840;9.162;2023-03-01T11:37:28;5.60;99.90
35541;DHT22;21650;48.840;9.162;2023-03-01T11:40:10;5.80;99.90
35541;DHT22;21650;48.840;9.162;2023-03-01T11:46:21;5.80;99.90
35541;DHT22;21650;48.840;9.162;2023-03-01T11:48:45;5.90;99.90
35541;DHT22;21650;48.840;9.162;2023-03-01T11:56:57;6.00;99.90
35541;DHT22;21650;48.840;9.162;2023-03-01T11:59:45;6.20;99.90
35541;DHT22;21650;48.840;9.162;2023-03-01T12:05:46;6.60;99.90
35541;DHT22;21650;48.840;9.162;2023-03-01T12:08:23;6.50;99.90
35541;DHT22;21650;48.840;9.162;2023-03-01T12:19:33;6.60;99.70
35541;DHT22;21650;48.840;9.162;2023-03-01T12:22:31;6.40;99.50
35541;DHT22;21650;48.840;9.162;2023-03-01T12:28:36;6.40;99.90
35541;DHT22;21650;48.840;9.162;2023-03-01T12:31:35;6.50;99.90
35541;DHT22;21650;48.840;9.162;2023-03-01T12:42:48;6.80;99.60
35541;DHT22;21650;48.840;9.162;2023-03-01T12:45:48;6.70;99.90
35541;DHT22;21650;48.840;9.162;2023-03-01T12:48:50;6.80;99.80
35541;DHT22;21650;48.840;9.162;2023-03-01T12:51:22;7.10;99.30
35541;DHT22;21650;48.840;9.162;2023-03-01T12:53:50;7.00;98.90
35541;DHT22;21650;48.840;9.162;2023-03-01T12:56:28;6.80;99.20
35541;DHT22;21650;48.840;9.162;2023-03-01T12:59:18;6.80;98.90
35541;DHT22;21650;48.840;9.162;2023-03-01T13:10:05;7.30;99.60
35541;DHT22;21650;48.840;9.162;2023-03-01T13:13:02;7.20;99.00
35541;DHT22;21650;48.840;9.162;2023-03-01T13:15:36;7.40;98.70
35541;DHT22;21650;48.840;9.162;2023-03-01T13:18:27;7.30;98.60
35541;DHT22;21650;48.840;9.162;2023-03-01T13:20:52;7.30;98.80
35541;DHT22;21650;48.840;9.162;2023-03-01T13:33:49;7.50;98.10
35541;DHT22;21650;48.840;9.162;2023-03-01T13:39:26;7.50;98.10
35541;DHT22;21650;48.840;9.162;2023-03-01T13:41:53;7.70;98.70
35541;DHT22;21650;48.840;9.162;2023-03-01T13:44:37;7.70;98.30
35541;DHT22;21650;48.840;9.162;2023-03-01T13:47:17;7.60;98.20
35541;DHT22;21650;48.840;9.162;2023-03-01T13:50:00;7.70;98.00
35541;DHT22;21650;48.840;9.162;2023-03-01T13:52:45;7.80;98.50
35541;DHT22;21650;48.840;9.162;2023-03-01T13:55:29;7.70;97.80
35541;DHT22;21650;48.840;9.162;2023-03-01T13:57:57;7.60;98.00
35541;DHT22;21650;48.840;9.162;2023-03-01T14:00:34;7.60;98.10
35541;DHT22;21650;48.840;9.162;2023-03-01T14:03:14;7.40;98.30
35541;DHT22;21650;48.840;9.162;2023-03-01T14:05:43;7.40;98.60
35541;DHT22;21650;48.840;9.162;2023-03-01T14:08:21;7.50;98.80
35541;DHT22;21650;48.840;9.162;2023-03-01T14:14:42;7.70;98.70
35541;DHT22;21650;48.840;9.162;2023-03-01T14:19:40;7.60;98.40
35541;DHT22;21650;48.840;9.162;2023-03-01T14:22:28;7.50;98.90
35541;DHT22;21650;48.840;9.162;2023-03-01T14:25:21;7.60;98.90
35541;DHT22;21650;48.840;9.162;2023-03-01T14:27:52;7.70;98.40
35541;DHT22;21650;48.840;9.162;2023-03-01T14:30:23;7.60;98.50
35541;DHT22;21650;48.840;9.162;2023-03-01T14:32:59;7.60;98.50
35541;DHT22;21650;48.840;9.162;2023-03-01T14:35:27;7.60;98.80
35541;DHT22;21650;48.840;9.162;2023-03-01T14:37:53;7.60;98.40
35541;DHT22;21650;48.840;9.162;2023-03-01T14:40:39;7.60;98.60
35541;DHT22;21650;48.840;9.162;2023-03-01T14:43:18;7.60;98.60
35541;DHT22;21650;48.840;9.162;2023-03-01T14:45:49;7.60;98.60
35541;DHT22;21650;48.840;9.162;2023-03-01T14:48:15;7.60;98.90
35541;DHT22;21650;48.840;9.162;2023-03-01T14:50:43;7.60;98.70
35541;DHT22;21650;48.840;9.162;2023-03-01T14:53:24;7.70;98.60
35541;DHT22;21650;48.840;9.162;2023-03-01T14:55:53;7.60;98.30
35541;DHT22;21650;48.840;9.162;2023-03-01T14:58:22;7.50;98.40
35541;DHT22;21650;48.840;9.162;2023-03-01T15:00:52;7.60;98.60
35541;DHT22;21650;48.840;9.162;2023-03-01T15:03:42;7.60;98.80
35541;DHT22;21650;48.840;9.162;2023-03-01T15:06:10;7.70;98.70
35541;DHT22;21650;48.840;9.162;2023-03-01T15:08:50;7.60;98.30
35541;DHT22;21650;48.840;9.162;2023-03-01T15:11:21;7.50;98.30
35541;DHT22;21650;48.840;9.162;2023-03-01T15:13:50;7.40;98.40
35541;DHT22;21650;48.840;9.162;2023-03-01T15:16:25;7.40;98.80
35541;DHT22;21650;48.840;9.162;2023-03-01T15:19:00;7.40;98.70
35541;DHT22;21650;48.840;9.162;2023-03-01T15:21:32;7.50;98.80
35541;DHT22;21650;48.840;9.162;2023-03-01T15:26:35;7.40;98.50
35541;DHT22;21650;48.840;9.162;2023-03-01T15:29:02;7.30;98.40
35541;DHT22;21650;48.840;9.162;2023-03-01T15:31:37;7.30;98.20
35541;DHT22;21650;48.840;9.162;2023-03-01T15:34:23;7.20;98.50
35541;DHT22;21650;48.840;9.162;2023-03-01T15:36:52;7.20;98.40
35541;DHT22;21650;48.840;9.162;2023-03-01T15:44:50;7.10;98.70
35541;DHT22;21650;48.840;9.162;2023-03-01T15:47:25;7.20;98.50
35541;DHT22;21650;48.840;9.162;2023-03-01T15:49:52;7.10;98.60
35541;DHT22;21650;48.840;9.162;2023-03-01T15:52:27;7.00;98.60
35541;DHT22;21650;48.840;9.162;2023-03-01T15:55:01;7.00;98.50
35541;DHT22;21650;48.840;9.162;2023-03-01T15:57:27;7.00;98.60
35541;DHT22;21650;48.840;9.162;2023-03-01T15:59:53;7.00;98.80
35541;DHT22;21650;48.840;9.162;2023-03-01T16:02:19;7.00;98.60
35541;DHT22;21650;48.840;9.162;2023-03-01T16:04:46;7.00;98.50
35541;DHT22;21650;48.840;9.162;2023-03-01T16:07:13;6.90;98.70
35541;DHT22;21650;48.840;9.162;2023-03-01T16:09:38;6.90;98.70
35541;DHT22;21650;48.840;9.162;2023-03-01T16:12:05;6.90;98.80
35541;DHT22;21650;48.840;9.162;2023-03-01T16:14:31;6.90;98.80
35541;DHT22;21650;48.840;9.162;2023-03-01T16:16:57;6.80;98.70
35541;DHT22;21650;48.840;9.162;2023-03-01T16:19:22;6.80;98.60
35541;DHT22;21650;48.840;9.162;2023-03-01T16:21:48;6.80;98.80
35541;DHT22;21650;48.840;9.162;2023-03-01T16:24:15;6.70;98.90
35541;DHT22;21650;48.840;9.162;2023-03-01T16:26:40;6.70;99.00
35541;DHT22;21650;48.840;9.162;2023-03-01T16:29:07;6.70;99.00
35541;DHT22;21650;48.840;9.162;2023-03-01T16:31:33;6.60;98.90
35541;DHT22;21650;48.840;9.162;2023-03-01T16:33:59;6.60;98.90
35541;DHT22;21650;48.840;9.162;2023-03-01T16:36:26;6.60;98.90
35541;DHT22;21650;48.840;9.162;2023-03-01T16:38:54;6.50;99.10
35541;DHT22;21650;48.840;9.162;2023-03-01T16:41:22;6.40;99.20
35541;DHT22;21650;48.840;9.162;2023-03-01T16:43:48;6.40;99.20
35541;DHT22;21650;48.840;9.162;2023-03-01T16:46:17;6.50;99.00
35541;DHT22;21650;48.840;9.162;2023-03-01T16:48:43;6.40;99.30
35541;DHT22;21650;48.840;9.162;2023-03-01T16:51:09;6.20;99.40
35541;DHT22;21650;48.840;9.162;2023-03-01T16:53:35;6.20;99.60
35541;DHT22;21650;48.840;9.162;2023-03-01T16:56:03;6.10;99.80
35541;DHT22;21650;48.840;9.162;2023-03-01T16:58:29;6.00;99.80
35541;DHT22;21650;48.840;9.162;2023-03-01T17:00:56;6.00;99.90
35541;DHT22;21650;48.840;9.162;2023-03-01T17:03:23;5.90;99.90
35541;DHT22;21650;48.840;9.162;2023-03-01T17:05:49;5.80;99.90
35541;DHT22;21650;48.840;9.162;2023-03-01T17:08:16;5.80;99.90
35541;DHT22;21650;48.840;9.162;2023-03-01T17:10:42;5.80;99.90
35541;DHT22;21650;48.840;9.162;2023-03-01T17:13:08;5.80;99.90
35541;DHT22;21650;48.840;9.162;2023-03-01T17:15:35;5.70;99.90
35541;DHT22;21650;48.840;9.162;2023-03-01T17:18:02;5.70;99.90
35541;DHT22;21650;48.840;9.162;2023-03-01T17:20:28;5.50;99.90
35541;DHT22;21650;48.840;9.162;2023-03-01T17:22:54;5.40;99.90
35541;DHT22;21650;48.840;9.162;2023-03-01T17:25:20;5.30;99.90
35541;DHT22;21650;48.840;9.162;2023-03-01T17:27:46;5.20;99.90
35541;DHT22;21650;48.840;9.162;2023-03-01T17:30:13;5.20;99.90
35541;DHT22;21650;48.840;9.162;2023-03-01T17:32:40;5.10;99.90
35541;DHT22;21650;48.840;9.162;2023-03-01T17:35:06;5.10;99.90
35541;DHT22;21650;48.840;9.162;2023-03-01T17:37:32;5.10;99.90